createdAt,value
2019-05-05T00:00:04.843Z,77.3254
2019-05-05T00:01:08.290Z,77.3254
2019-05-05T00:02:14.366Z,77.4292
2019-05-05T00:03:17.313Z,77.4292
2019-05-05T00:04:21.333Z,77.4292
2019-05-05T00:05:24.694Z,77.4292
2019-05-05T00:06:28.308Z,77.6367
2019-05-05T00:07:31.271Z,77.6367
2019-05-05T00:08:35.152Z,77.7405
2019-05-05T00:09:39.285Z,77.8442
2019-05-05T00:10:42.256Z,77.7771
2019-05-05T00:11:46.301Z,77.8809
2019-05-05T00:12:49.323Z,77.8809
2019-05-05T00:13:55.074Z,77.9846
2019-05-05T00:14:57.275Z,77.9846
2019-05-05T00:16:00.339Z,77.9846
2019-05-05T00:17:05.348Z,78.0884
2019-05-05T00:18:08.307Z,78.1921
2019-05-05T00:19:11.275Z,78.1921
2019-05-05T00:20:14.573Z,78.1921
2019-05-05T00:21:18.302Z,78.1921
2019-05-05T00:22:21.362Z,78.0884
2019-05-05T00:23:25.125Z,77.9480
2019-05-05T00:24:29.282Z,78.0518
2019-05-05T00:25:34.195Z,78.0884
2019-05-05T00:26:38.303Z,78.1921
2019-05-05T00:27:41.354Z,78.1921
2019-05-05T00:28:45.271Z,78.1921
2019-05-05T00:29:48.288Z,78.1921
2019-05-05T00:30:51.289Z,78.2959
2019-05-05T00:31:54.747Z,78.1921
2019-05-05T00:32:58.343Z,78.2959
2019-05-05T00:34:02.293Z,78.2959
2019-05-05T00:35:04.388Z,78.1921
2019-05-05T00:36:08.288Z,78.1921
2019-05-05T00:37:10.329Z,78.1921
2019-05-05T00:38:14.291Z,78.1921
2019-05-05T00:39:18.314Z,78.2959
2019-05-05T00:40:21.270Z,78.1921
2019-05-05T00:41:25.505Z,77.9846
2019-05-05T00:42:29.322Z,77.7771
2019-05-05T00:43:34.517Z,77.5696
2019-05-05T00:44:38.303Z,77.4658
2019-05-05T00:45:41.283Z,77.3987
2019-05-05T00:46:45.303Z,77.1912
2019-05-05T00:47:48.294Z,77.1912
2019-05-05T00:48:52.370Z,76.9836
2019-05-05T00:49:56.267Z,76.3611
2019-05-05T00:51:00.285Z,76.1902
2019-05-05T00:52:05.090Z,75.9827
2019-05-05T00:53:08.285Z,75.5676
2019-05-05T00:54:12.328Z,75.5676
2019-05-05T00:55:15.273Z,75.3601
2019-05-05T00:56:19.320Z,75.3601
2019-05-05T00:57:24.224Z,75.3601
2019-05-05T00:58:28.335Z,75.2563
2019-05-05T00:59:31.304Z,75.1526
2019-05-05T01:00:34.933Z,75.0854
2019-05-05T01:01:38.298Z,75.0854
2019-05-05T01:02:41.312Z,74.9817
2019-05-05T01:03:45.312Z,75.0854
2019-05-05T01:04:48.300Z,75.1892
2019-05-05T01:05:52.304Z,75.1892
2019-05-05T01:06:55.270Z,75.1892
2019-05-05T01:07:58.314Z,75.1892
2019-05-05T01:09:04.208Z,75.2930
2019-05-05T01:10:07.283Z,75.4333
2019-05-05T01:11:11.277Z,75.5371
2019-05-05T01:12:14.936Z,75.7446
2019-05-05T01:13:18.304Z,75.8484
2019-05-05T01:14:21.323Z,75.8484
2019-05-05T01:15:25.550Z,75.9521
2019-05-05T01:16:29.295Z,75.9521
2019-05-05T01:17:34.398Z,76.0559
2019-05-05T01:18:38.270Z,76.0559
2019-05-05T01:19:41.327Z,76.0559
2019-05-05T01:20:45.278Z,76.0559
2019-05-05T01:21:48.419Z,76.1902
2019-05-05T01:22:51.273Z,76.1902
2019-05-05T01:23:55.299Z,76.1902
2019-05-05T01:24:58.298Z,76.1902
2019-05-05T01:26:02.278Z,76.1902
2019-05-05T01:27:05.307Z,76.1902
2019-05-05T01:28:09.289Z,76.2939
2019-05-05T01:29:12.319Z,76.2939
2019-05-05T01:30:15.312Z,76.3977
2019-05-05T01:31:18.331Z,76.3977
2019-05-05T01:32:21.298Z,76.3977
2019-05-05T01:33:25.278Z,76.5015
2019-05-05T01:34:28.271Z,76.5015
2019-05-05T01:35:34.028Z,76.6052
2019-05-05T01:36:37.285Z,76.6052
2019-05-05T01:37:44.174Z,76.7090
2019-05-05T01:38:49.392Z,76.7090
2019-05-05T01:39:54.118Z,76.8127
2019-05-05T01:40:58.323Z,76.8127
2019-05-05T01:42:01.309Z,76.8127
2019-05-05T01:43:05.434Z,76.8127
2019-05-05T01:44:09.307Z,76.8127
2019-05-05T01:45:12.286Z,76.7090
2019-05-05T01:46:16.307Z,76.7090
2019-05-05T01:47:19.320Z,76.6052
2019-05-05T01:48:24.782Z,76.5015
2019-05-05T01:49:28.281Z,76.3977
2019-05-05T01:50:32.310Z,76.3977
2019-05-05T01:51:35.624Z,76.3977
2019-05-05T01:52:39.302Z,76.3977
2019-05-05T01:53:44.255Z,76.3977
2019-05-05T01:54:47.273Z,76.3977
2019-05-05T01:55:51.299Z,76.3977
2019-05-05T01:56:55.122Z,76.3977
2019-05-05T01:57:59.309Z,76.3977
2019-05-05T01:59:02.326Z,76.3977
2019-05-05T02:00:05.293Z,76.3977
2019-05-05T02:01:09.278Z,76.2939
2019-05-05T02:02:14.426Z,76.2939
2019-05-05T02:03:18.288Z,76.1902
2019-05-05T02:04:20.314Z,76.1902
2019-05-05T02:05:24.310Z,76.2939
2019-05-05T02:06:27.288Z,76.2939
2019-05-05T02:07:30.315Z,76.3977
2019-05-05T02:08:34.924Z,76.3977
2019-05-05T02:09:38.282Z,76.3977
2019-05-05T02:10:42.290Z,76.3977
2019-05-05T02:11:45.444Z,76.3977
2019-05-05T02:12:49.297Z,76.3977
2019-05-05T02:13:54.419Z,76.5015
2019-05-05T02:14:58.253Z,76.5015
2019-05-05T02:16:04.409Z,76.6052
2019-05-05T02:17:08.292Z,76.7090
2019-05-05T02:18:12.340Z,76.8127
2019-05-05T02:19:15.271Z,76.7090
2019-05-05T02:20:28.849Z,76.7090
2019-05-05T02:21:27.317Z,76.7090
2019-05-05T02:22:30.297Z,76.8127
2019-05-05T02:23:35.144Z,76.9531
2019-05-05T02:24:38.279Z,77.1606
2019-05-05T02:25:42.323Z,77.3682
2019-05-05T02:26:45.618Z,77.3682
2019-05-05T02:27:49.278Z,77.3682
2019-05-05T02:28:54.141Z,77.2644
2019-05-05T02:29:57.277Z,77.2644
2019-05-05T02:31:01.282Z,77.0203
2019-05-05T02:32:06.327Z,76.9165
2019-05-05T02:33:10.303Z,76.8127
2019-05-05T02:34:16.261Z,76.8127
2019-05-05T02:35:20.369Z,76.8127
2019-05-05T02:36:25.734Z,76.8127
2019-05-05T02:37:29.305Z,76.8127
2019-05-05T02:38:35.464Z,76.9165
2019-05-05T02:39:45.871Z,76.9165
2019-05-05T02:40:47.303Z,76.9165
2019-05-05T02:41:50.316Z,76.9165
2019-05-05T02:42:54.995Z,77.0203
2019-05-05T02:43:58.317Z,77.0203
2019-05-05T02:45:01.405Z,77.0203
2019-05-05T02:46:05.593Z,77.0203
2019-05-05T02:47:09.268Z,77.0203
2019-05-05T02:48:15.147Z,76.9165
2019-05-05T02:49:19.306Z,76.8127
2019-05-05T02:50:25.092Z,76.8127
2019-05-05T02:51:27.314Z,76.7090
2019-05-05T02:52:30.265Z,76.7090
2019-05-05T02:53:34.336Z,76.7090
2019-05-05T02:54:37.297Z,76.8127
2019-05-05T02:55:41.352Z,76.9165
2019-05-05T02:56:44.254Z,76.9165
2019-05-05T02:57:48.295Z,76.9165
2019-05-05T02:58:51.282Z,76.9165
2019-05-05T02:59:54.310Z,76.8127
2019-05-05T03:00:58.303Z,76.8127
2019-05-05T03:02:01.305Z,76.7090
2019-05-05T03:03:05.264Z,76.7090
2019-05-05T03:04:08.272Z,76.6052
2019-05-05T03:05:14.169Z,76.6052
2019-05-05T03:06:17.299Z,76.6052
2019-05-05T03:07:20.308Z,76.5015
2019-05-05T03:08:24.327Z,76.5015
2019-05-05T03:09:27.308Z,76.3977
2019-05-05T03:10:31.264Z,76.3977
2019-05-05T03:11:34.443Z,76.3672
2019-05-05T03:12:38.298Z,76.3672
2019-05-05T03:13:41.283Z,76.3977
2019-05-05T03:14:44.655Z,76.3977
2019-05-05T03:15:48.293Z,76.3977
2019-05-05T03:16:51.340Z,76.3672
2019-05-05T03:17:55.271Z,76.3672
2019-05-05T03:18:58.330Z,76.3672
2019-05-05T03:20:04.086Z,76.2634
2019-05-05T03:21:07.540Z,76.2634
2019-05-05T03:22:11.321Z,76.1597
2019-05-05T03:23:15.290Z,76.1597
2019-05-05T03:24:18.285Z,76.1597
2019-05-05T03:25:24.063Z,76.0559
2019-05-05T03:26:26.310Z,75.9521
2019-05-05T03:27:30.319Z,75.8484
2019-05-05T03:28:34.442Z,75.8484
2019-05-05T03:29:37.274Z,75.8484
2019-05-05T03:30:41.301Z,75.9521
2019-05-05T03:31:45.724Z,76.0559
2019-05-05T03:32:49.303Z,76.0559
2019-05-05T03:33:54.951Z,76.1597
2019-05-05T03:34:58.275Z,76.1597
2019-05-05T03:36:03.436Z,76.0559
2019-05-05T03:37:07.279Z,76.0559
2019-05-05T03:38:11.342Z,76.0559
2019-05-05T03:39:14.460Z,76.1597
2019-05-05T03:40:17.302Z,76.2634
2019-05-05T03:41:20.288Z,76.2634
2019-05-05T03:42:24.564Z,76.2634
2019-05-05T03:43:28.352Z,76.3672
2019-05-05T03:44:33.435Z,76.4709
2019-05-05T03:45:39.351Z,76.5747
2019-05-05T03:46:44.284Z,76.5747
2019-05-05T03:47:50.347Z,76.5747
2019-05-05T03:48:54.142Z,76.6785
2019-05-05T03:49:57.290Z,76.7822
2019-05-05T03:51:00.256Z,76.8127
2019-05-05T03:52:04.878Z,76.9165
2019-05-05T03:53:08.293Z,77.0203
2019-05-05T03:54:11.297Z,77.1240
2019-05-05T03:55:15.339Z,77.1240
2019-05-05T03:56:18.278Z,77.1240
2019-05-05T03:57:24.462Z,77.0203
2019-05-05T03:58:28.259Z,76.9897
2019-05-05T03:59:31.335Z,76.8860
2019-05-05T04:00:36.294Z,76.7822
2019-05-05T04:01:39.300Z,76.7822
2019-05-05T04:02:44.540Z,76.7822
2019-05-05T04:03:48.296Z,76.8860
2019-05-05T04:04:54.803Z,76.8860
2019-05-05T04:05:58.296Z,76.9165
2019-05-05T04:07:01.320Z,77.0203
2019-05-05T04:08:05.281Z,77.0203
2019-05-05T04:09:08.312Z,77.2278
2019-05-05T04:10:14.072Z,77.5391
2019-05-05T04:11:17.301Z,77.6428
2019-05-05T04:12:21.287Z,77.7466
2019-05-05T04:13:24.332Z,77.8503
2019-05-05T04:14:27.325Z,77.9541
2019-05-05T04:15:31.329Z,77.8503
2019-05-05T04:16:34.327Z,77.9541
2019-05-05T04:17:38.284Z,77.9541
2019-05-05T04:18:43.473Z,77.9541
2019-05-05T04:19:47.303Z,77.9541
2019-05-05T04:20:50.305Z,78.0579
2019-05-05T04:21:53.710Z,78.0579
2019-05-05T04:22:58.220Z,78.0579
2019-05-05T04:24:01.295Z,78.2654
2019-05-05T04:25:05.348Z,78.2654
2019-05-05T04:26:08.302Z,78.3691
2019-05-05T04:27:14.459Z,78.3691
2019-05-05T04:28:18.290Z,78.3691
2019-05-05T04:29:24.424Z,78.2654
2019-05-05T04:30:28.341Z,78.2654
2019-05-05T04:31:30.256Z,78.2654
2019-05-05T04:32:34.876Z,78.1616
2019-05-05T04:33:38.272Z,78.0579
2019-05-05T04:34:43.923Z,78.0579
2019-05-05T04:35:47.316Z,78.1616
2019-05-05T04:36:50.276Z,78.3691
2019-05-05T04:37:54.481Z,78.4729
2019-05-05T04:38:58.305Z,78.4729
2019-05-05T04:40:04.112Z,78.3691
2019-05-05T04:41:05.981Z,78.1616
2019-05-05T04:42:10.313Z,78.1616
2019-05-05T04:43:14.329Z,78.2654
2019-05-05T04:44:18.062Z,78.4729
2019-05-05T04:45:21.267Z,78.5767
2019-05-05T04:46:24.597Z,78.5767
2019-05-05T04:47:27.285Z,78.5767
2019-05-05T04:48:30.287Z,78.4729
2019-05-05T04:49:34.282Z,78.4729
2019-05-05T04:50:37.288Z,78.3691
2019-05-05T04:51:47.796Z,78.2654
2019-05-05T04:52:48.307Z,78.1311
2019-05-05T04:53:51.292Z,78.0273
2019-05-05T04:54:55.806Z,77.9236
2019-05-05T04:55:58.285Z,77.9236
2019-05-05T04:57:04.370Z,77.8198
2019-05-05T04:58:08.259Z,77.7161
2019-05-05T04:59:11.274Z,77.5085
2019-05-05T05:00:14.302Z,77.3682
2019-05-05T05:01:17.307Z,77.3682
2019-05-05T05:02:23.505Z,77.3682
2019-05-05T05:03:27.296Z,77.3682
2019-05-05T05:04:31.302Z,77.4719
2019-05-05T05:05:34.296Z,77.7161
2019-05-05T05:06:37.289Z,77.9236
2019-05-05T05:07:41.355Z,78.2349
2019-05-05T05:08:44.310Z,78.3386
2019-05-05T05:09:48.324Z,78.4424
2019-05-05T05:10:51.355Z,78.4424
2019-05-05T05:11:55.285Z,78.4424
2019-05-05T05:12:58.314Z,78.4424
2019-05-05T05:14:01.282Z,78.5461
2019-05-05T05:15:05.303Z,79.0649
2019-05-05T05:16:08.290Z,79.4800
2019-05-05T05:17:14.035Z,79.6875
2019-05-05T05:18:17.321Z,80.2063
2019-05-05T05:19:21.298Z,80.5542
2019-05-05T05:20:24.723Z,80.6580
2019-05-05T05:21:28.309Z,80.7617
2019-05-05T05:22:33.438Z,81.0730
2019-05-05T05:23:37.333Z,81.0730
2019-05-05T05:24:41.330Z,81.0730
2019-05-05T05:25:44.323Z,81.0730
2019-05-05T05:26:48.314Z,81.1768
2019-05-05T05:27:53.478Z,81.1768
2019-05-05T05:28:57.341Z,81.1401
2019-05-05T05:30:01.294Z,81.0364
2019-05-05T05:31:04.327Z,81.0364
2019-05-05T05:32:07.317Z,80.8289
2019-05-05T05:33:10.315Z,80.7251
2019-05-05T05:34:14.887Z,80.7861
2019-05-05T05:35:18.262Z,80.8899
2019-05-05T05:36:21.284Z,81.2012
2019-05-05T05:37:25.274Z,81.2012
2019-05-05T05:38:28.262Z,81.5125
2019-05-05T05:39:33.549Z,81.6162
2019-05-05T05:40:37.287Z,81.8665
2019-05-05T05:41:43.456Z,82.0740
2019-05-05T05:42:47.288Z,82.2815
2019-05-05T05:43:50.300Z,82.3853
2019-05-05T05:44:54.354Z,82.5928
2019-05-05T05:45:57.287Z,82.5928
2019-05-05T05:47:03.473Z,82.8003
2019-05-05T05:48:07.274Z,83.1116
2019-05-05T05:49:13.405Z,83.1116
2019-05-05T05:50:17.324Z,83.0078
2019-05-05T05:51:20.301Z,83.0688
2019-05-05T05:52:24.392Z,83.1726
2019-05-05T05:53:27.284Z,83.3801
2019-05-05T05:54:31.308Z,83.4839
2019-05-05T05:55:34.406Z,83.5876
2019-05-05T05:56:38.319Z,83.6914
2019-05-05T05:57:41.316Z,83.7952
2019-05-05T05:58:44.294Z,83.7952
2019-05-05T05:59:48.290Z,83.8989
2019-05-05T06:00:51.326Z,84.0027
2019-05-05T06:02:08.400Z,84.0027
2019-05-05T06:03:03.974Z,84.2102
2019-05-05T06:04:06.282Z,84.5215
2019-05-05T06:05:09.310Z,84.5215
2019-05-05T06:06:10.205Z,84.3811
2019-05-05T06:07:14.419Z,84.2773
2019-05-05T06:08:16.192Z,84.2773
2019-05-05T06:09:20.273Z,84.2773
2019-05-05T06:10:27.056Z,84.0271
2019-05-05T06:11:31.376Z,84.0271
2019-05-05T06:12:34.296Z,84.5459
2019-05-05T06:13:37.292Z,84.6497
2019-05-05T06:14:41.319Z,84.9609
2019-05-05T06:15:44.543Z,85.2722
2019-05-05T06:16:48.341Z,85.4797
2019-05-05T06:17:51.266Z,85.7910
2019-05-05T06:18:55.272Z,86.3098
2019-05-05T06:19:58.276Z,86.5540
2019-05-05T06:21:01.289Z,86.9324
2019-05-05T06:22:05.297Z,87.1399
2019-05-05T06:23:08.312Z,87.4512
2019-05-05T06:24:13.645Z,87.5549
2019-05-05T06:25:17.308Z,87.7625
2019-05-05T06:26:23.876Z,87.9700
2019-05-05T06:27:27.368Z,88.0737
2019-05-05T06:28:30.315Z,88.3850
2019-05-05T06:29:34.619Z,88.5864
2019-05-05T06:30:38.293Z,88.5864
2019-05-05T06:31:41.268Z,88.7939
2019-05-05T06:32:45.780Z,88.7939
2019-05-05T06:33:49.283Z,88.8977
2019-05-05T06:34:53.478Z,89.0015
2019-05-05T06:35:57.304Z,89.2090
2019-05-05T06:37:01.316Z,89.3127
2019-05-05T06:38:04.781Z,89.4165
2019-05-05T06:39:08.321Z,89.3799
2019-05-05T06:40:11.266Z,89.1052
2019-05-05T06:41:15.287Z,89.1052
2019-05-05T06:42:18.260Z,89.2090
2019-05-05T06:43:23.688Z,89.1052
2019-05-05T06:44:28.316Z,89.2090
2019-05-05T06:45:31.293Z,89.4165
2019-05-05T06:46:35.290Z,89.6240
2019-05-05T06:47:38.270Z,89.6851
2019-05-05T06:48:43.827Z,89.7888
2019-05-05T06:49:47.277Z,89.7888
2019-05-05T06:50:50.304Z,89.8926
2019-05-05T06:51:54.788Z,89.7522
2019-05-05T06:52:58.325Z,89.6484
2019-05-05T06:54:04.498Z,89.4409
2019-05-05T06:55:08.274Z,89.6484
2019-05-05T06:56:14.383Z,89.6484
2019-05-05T06:57:18.293Z,89.2334
2019-05-05T06:58:21.394Z,89.1296
2019-05-05T06:59:25.256Z,89.2334
2019-05-05T07:00:28.334Z,89.4409
2019-05-05T07:01:33.811Z,89.2334
2019-05-05T07:02:37.310Z,89.3372
2019-05-05T07:03:41.289Z,89.4409
2019-05-05T07:04:44.535Z,89.4409
2019-05-05T07:05:48.266Z,89.5447
2019-05-05T07:06:56.712Z,89.5447
2019-05-05T07:08:00.288Z,89.0259
2019-05-05T07:09:05.440Z,88.7146
2019-05-05T07:10:09.305Z,88.5071
2019-05-05T07:11:14.552Z,88.5071
2019-05-05T07:12:18.306Z,88.2996
2019-05-05T07:13:21.261Z,88.4033
2019-05-05T07:14:25.314Z,88.2385
2019-05-05T07:15:28.281Z,88.4460
2019-05-05T07:16:34.532Z,88.3423
2019-05-05T07:17:38.265Z,88.3423
2019-05-05T07:18:44.487Z,88.0310
2019-05-05T07:19:47.339Z,87.9272
2019-05-05T07:20:49.589Z,88.1348
2019-05-05T07:21:53.949Z,88.4460
2019-05-05T07:23:02.258Z,88.5498
2019-05-05T07:24:06.348Z,88.2996
2019-05-05T07:25:09.314Z,88.2996
2019-05-05T07:26:14.395Z,88.1958
2019-05-05T07:27:18.276Z,88.2996
2019-05-05T07:28:23.420Z,88.4033
2019-05-05T07:29:27.292Z,88.2996
2019-05-05T07:30:30.367Z,87.9883
2019-05-05T07:31:34.384Z,87.9883
2019-05-05T07:32:37.321Z,87.8845
2019-05-05T07:33:41.313Z,87.4695
2019-05-05T07:34:44.266Z,86.7493
2019-05-05T07:35:56.890Z,86.8530
2019-05-05T07:36:55.268Z,87.1643
2019-05-05T07:37:58.290Z,87.5732
2019-05-05T07:39:03.793Z,87.8845
2019-05-05T07:40:07.289Z,87.9883
2019-05-05T07:41:11.308Z,87.7808
2019-05-05T07:42:14.287Z,87.6404
2019-05-05T07:43:17.253Z,87.7441
2019-05-05T07:44:28.393Z,87.8479
2019-05-05T07:45:29.315Z,87.8479
2019-05-05T07:46:34.644Z,87.4329
2019-05-05T07:47:38.325Z,86.8103
2019-05-05T07:48:44.149Z,86.8103
2019-05-05T07:49:47.304Z,87.1216
2019-05-05T07:51:01.185Z,87.3291
2019-05-05T07:51:58.361Z,87.4329
2019-05-05T07:53:12.294Z,87.4329
2019-05-05T07:54:09.305Z,87.5366
2019-05-05T07:55:14.246Z,87.5366
2019-05-05T07:56:18.289Z,87.5366
2019-05-05T07:57:21.342Z,87.5977
2019-05-05T07:58:24.371Z,87.7014
2019-05-05T07:59:28.274Z,87.7014
2019-05-05T08:00:31.266Z,87.5610
2019-05-05T08:01:35.325Z,86.9385
2019-05-05T08:02:38.300Z,86.7310
2019-05-05T08:03:44.384Z,85.9070
2019-05-05T08:04:47.291Z,86.2122
2019-05-05T08:05:50.301Z,86.6272
2019-05-05T08:06:54.299Z,86.7920
2019-05-05T08:07:57.351Z,86.8958
2019-05-05T08:09:01.302Z,86.3403
2019-05-05T08:10:04.649Z,86.4441
2019-05-05T08:11:08.334Z,86.8164
2019-05-05T08:12:13.539Z,86.7126
2019-05-05T08:13:17.343Z,86.4685
2019-05-05T08:14:21.286Z,86.4685
2019-05-05T08:15:24.295Z,85.7056
2019-05-05T08:16:28.286Z,84.8816
2019-05-05T08:17:31.305Z,84.4666
2019-05-05T08:18:35.353Z,84.6741
2019-05-05T08:19:38.328Z,83.3984
2019-05-05T08:20:41.337Z,80.8228
2019-05-05T08:21:45.297Z,81.2683
2019-05-05T08:22:48.298Z,80.6519
2019-05-05T08:23:54.020Z,80.9631
2019-05-05T08:24:57.313Z,81.7871
2019-05-05T08:26:01.289Z,82.0557
2019-05-05T08:27:04.622Z,81.6467
2019-05-05T08:28:08.305Z,79.9988
2019-05-05T08:29:13.630Z,79.6875
2019-05-05T08:30:17.312Z,79.8950
2019-05-05T08:31:21.295Z,79.0710
2019-05-05T08:32:24.295Z,80.5786
2019-05-05T08:33:28.318Z,81.1951
2019-05-05T08:34:31.317Z,80.1636
2019-05-05T08:35:34.499Z,79.3396
2019-05-05T08:36:39.467Z,80.4382
2019-05-05T08:37:43.648Z,79.6143
2019-05-05T08:38:47.376Z,79.6143
2019-05-05T08:39:50.335Z,79.7852
2019-05-05T08:40:54.473Z,80.4016
2019-05-05T08:41:58.295Z,80.4016
2019-05-05T08:43:01.261Z,79.5776
2019-05-05T08:44:05.326Z,79.6814
2019-05-05T08:45:08.324Z,79.7852
2019-05-05T08:46:11.326Z,78.2776
2019-05-05T08:47:14.319Z,78.2776
2019-05-05T08:48:18.327Z,78.2104
2019-05-05T08:49:21.320Z,75.6287
2019-05-05T08:50:26.986Z,75.3601
2019-05-05T08:51:31.318Z,75.3906
2019-05-05T08:52:34.401Z,74.8108
2019-05-05T08:53:44.719Z,76.3550
2019-05-05T08:54:46.332Z,77.6306
2019-05-05T08:55:50.305Z,78.3508
2019-05-05T08:56:54.933Z,77.6306
2019-05-05T08:57:58.347Z,78.1433
2019-05-05T08:59:03.668Z,78.6621
2019-05-05T09:00:07.359Z,79.0405
2019-05-05T09:01:11.300Z,79.3457
2019-05-05T09:02:15.026Z,79.2480
2019-05-05T09:03:19.297Z,79.1443
2019-05-05T09:04:24.129Z,78.9368
2019-05-05T09:05:28.382Z,79.1077
2019-05-05T09:06:34.146Z,78.5889
2019-05-05T09:07:38.344Z,78.3813
2019-05-05T09:08:44.074Z,78.0396
2019-05-05T09:09:47.299Z,77.8320
2019-05-05T09:10:53.040Z,78.2104
2019-05-05T09:11:58.343Z,78.0701
2019-05-05T09:13:03.592Z,77.1057
2019-05-05T09:14:07.302Z,76.7639
2019-05-05T09:15:10.289Z,76.9958
2019-05-05T09:16:14.588Z,75.7324
2019-05-05T09:17:18.305Z,75.4211
2019-05-05T09:18:24.454Z,75.1831
2019-05-05T09:19:28.300Z,73.7793
2019-05-05T09:20:31.272Z,74.5972
2019-05-05T09:21:34.619Z,74.9084
2019-05-05T09:22:38.309Z,75.3174
2019-05-05T09:23:56.595Z,74.9084
2019-05-05T09:24:50.304Z,69.8730
2019-05-05T09:25:54.342Z,71.2402
2019-05-05T09:26:57.330Z,71.5515
2019-05-05T09:28:03.026Z,71.4783
2019-05-05T09:29:08.322Z,70.1782
2019-05-05T09:30:11.309Z,68.3533
2019-05-05T09:31:15.312Z,67.5659
2019-05-05T09:32:18.355Z,68.7256
2019-05-05T09:33:24.625Z,69.5862
2019-05-05T09:34:28.300Z,70.8557
2019-05-05T09:35:31.321Z,72.1924
2019-05-05T09:36:35.299Z,72.7112
2019-05-05T09:37:38.342Z,73.4314
2019-05-05T09:38:42.286Z,74.0540
2019-05-05T09:39:45.299Z,71.8872
2019-05-05T09:40:49.326Z,71.7834
2019-05-05T09:41:53.610Z,72.5037
2019-05-05T09:42:57.362Z,72.2961
2019-05-05T09:44:01.277Z,72.0947
2019-05-05T09:45:04.805Z,72.5403
2019-05-05T09:46:08.336Z,71.9910
2019-05-05T09:47:13.482Z,72.9187
2019-05-05T09:48:16.337Z,73.1201
2019-05-05T09:49:19.349Z,73.1201
2019-05-05T09:50:23.695Z,71.3379
2019-05-05T09:51:27.294Z,72.7783
2019-05-05T09:52:30.295Z,72.9553
2019-05-05T09:53:34.593Z,72.9553
2019-05-05T09:54:38.322Z,72.5403
2019-05-05T09:55:44.213Z,72.6440
2019-05-05T09:56:47.348Z,72.5403
2019-05-05T09:57:50.277Z,73.0896
2019-05-05T09:58:54.545Z,73.0896
2019-05-05T09:59:58.287Z,71.2341
2019-05-05T10:01:03.952Z,71.6431
2019-05-05T10:02:07.301Z,72.4731
2019-05-05T10:03:11.285Z,72.3022
2019-05-05T10:04:14.358Z,72.5769
2019-05-05T10:05:17.284Z,72.5769
2019-05-05T10:06:21.310Z,70.9961
2019-05-05T10:07:24.426Z,68.1519
2019-05-05T10:08:28.314Z,69.1772
2019-05-05T10:09:31.301Z,70.1050
2019-05-05T10:10:34.347Z,68.9026
2019-05-05T10:11:37.315Z,68.3899
2019-05-05T10:12:40.272Z,70.0378
2019-05-05T10:13:44.373Z,70.3430
2019-05-05T10:14:47.322Z,70.5505
2019-05-05T10:15:51.320Z,70.9961
2019-05-05T10:16:54.303Z,70.1416
2019-05-05T10:17:58.333Z,69.7327
2019-05-05T10:19:01.296Z,70.3186
2019-05-05T10:20:04.356Z,70.6238
2019-05-05T10:21:08.267Z,69.4946
2019-05-05T10:22:11.326Z,69.1833
2019-05-05T10:23:15.324Z,68.4631
2019-05-05T10:24:27.813Z,67.3340
2019-05-05T10:25:25.375Z,67.6453
2019-05-05T10:26:28.315Z,68.4998
2019-05-05T10:27:42.643Z,67.4683
2019-05-05T10:28:39.296Z,69.1162
2019-05-05T10:29:44.105Z,69.3542
2019-05-05T10:30:48.317Z,69.6289
2019-05-05T10:31:50.328Z,68.9087
2019-05-05T10:32:54.633Z,69.2200
2019-05-05T10:33:58.286Z,68.9087
2019-05-05T10:35:01.279Z,69.1833
2019-05-05T10:36:05.339Z,70.1111
2019-05-05T10:37:08.268Z,69.7693
2019-05-05T10:38:14.107Z,66.1743
2019-05-05T10:39:17.304Z,67.5110
2019-05-05T10:40:21.306Z,64.4287
2019-05-05T10:41:24.365Z,62.7808
2019-05-05T10:42:27.285Z,62.0911
2019-05-05T10:43:31.302Z,63.0493
2019-05-05T10:44:34.263Z,65.0024
2019-05-05T10:45:38.331Z,66.6748
2019-05-05T10:46:41.360Z,65.8569
2019-05-05T10:47:45.297Z,65.1611
2019-05-05T10:48:47.339Z,67.5293
2019-05-05T10:49:50.289Z,67.6331
2019-05-05T10:50:54.324Z,67.0166
2019-05-05T10:51:57.301Z,66.3269
2019-05-05T10:53:01.325Z,66.1194
2019-05-05T10:54:04.264Z,66.1499
2019-05-05T10:55:08.309Z,68.1091
2019-05-05T10:56:13.528Z,67.7002
2019-05-05T10:57:18.499Z,68.5242
2019-05-05T10:58:24.259Z,68.6218
2019-05-05T10:59:28.303Z,68.4509
2019-05-05T11:00:33.754Z,68.7622
2019-05-05T11:01:37.332Z,68.5547
2019-05-05T11:02:41.337Z,68.9636
2019-05-05T11:03:44.751Z,69.5862
2019-05-05T11:04:48.305Z,70.2026
2019-05-05T11:05:53.837Z,70.9229
2019-05-05T11:06:57.267Z,70.4773
2019-05-05T11:08:01.324Z,70.6848
2019-05-05T11:09:04.455Z,70.6848
2019-05-05T11:10:08.326Z,70.2759
2019-05-05T11:11:13.563Z,70.6848
2019-05-05T11:12:17.304Z,70.9961
2019-05-05T11:13:21.305Z,70.0684
2019-05-05T11:14:24.317Z,69.9646
2019-05-05T11:15:28.288Z,68.8293
2019-05-05T11:16:31.348Z,69.2444
2019-05-05T11:17:35.305Z,69.3481
2019-05-05T11:18:39.376Z,69.4519
2019-05-05T11:19:44.115Z,69.0369
2019-05-05T11:20:49.303Z,69.0369
2019-05-05T11:21:54.007Z,69.3481
2019-05-05T11:22:56.291Z,69.3481
2019-05-05T11:23:59.353Z,69.2444
2019-05-05T11:25:05.060Z,69.8608
2019-05-05T11:26:08.293Z,70.1355
2019-05-05T11:27:11.303Z,69.7266
2019-05-05T11:28:15.305Z,69.5190
2019-05-05T11:29:18.331Z,69.3115
2019-05-05T11:30:24.916Z,69.1101
2019-05-05T11:31:30.324Z,69.1101
2019-05-05T11:32:34.305Z,69.0735
2019-05-05T11:33:37.362Z,67.4316
2019-05-05T11:34:40.302Z,67.6636
2019-05-05T11:35:44.474Z,68.2861
2019-05-05T11:36:47.294Z,69.1772
2019-05-05T11:37:51.338Z,68.8721
2019-05-05T11:38:54.266Z,68.3533
2019-05-05T11:39:58.354Z,68.1519
2019-05-05T11:41:01.279Z,68.0481
2019-05-05T11:42:04.528Z,67.4988
2019-05-05T11:43:07.407Z,67.6025
2019-05-05T11:44:10.285Z,68.0176
2019-05-05T11:45:14.903Z,68.4998
2019-05-05T11:46:20.298Z,67.6758
2019-05-05T11:47:24.542Z,67.4377
2019-05-05T11:48:27.467Z,66.7175
2019-05-05T11:49:30.303Z,65.7959
2019-05-05T11:50:34.331Z,65.5579
2019-05-05T11:51:37.333Z,64.0869
2019-05-05T11:52:41.318Z,64.7034
2019-05-05T11:53:44.821Z,62.6221
2019-05-05T11:54:48.325Z,63.6169
2019-05-05T11:55:51.311Z,63.5620
2019-05-05T11:56:54.283Z,61.2732
2019-05-05T11:57:58.299Z,59.1736
2019-05-05T11:59:01.312Z,57.5073
2019-05-05T12:00:05.281Z,58.2947
2019-05-05T12:01:08.349Z,60.5225
2019-05-05T12:02:13.976Z,60.9741
2019-05-05T12:03:17.292Z,60.9436
2019-05-05T12:04:20.312Z,61.6333
2019-05-05T12:05:24.450Z,59.6619
2019-05-05T12:06:27.339Z,59.6619
2019-05-05T12:07:31.292Z,53.3386
2019-05-05T12:08:34.623Z,55.5847
2019-05-05T12:09:38.295Z,56.7322
2019-05-05T12:10:41.298Z,54.7424
2019-05-05T12:11:44.345Z,56.6101
2019-05-05T12:12:48.315Z,56.4331
2019-05-05T12:13:51.285Z,57.4768
2019-05-05T12:14:55.313Z,56.0730
2019-05-05T12:15:58.295Z,54.2847
2019-05-05T12:17:04.439Z,58.6121
2019-05-05T12:18:08.334Z,59.2529
2019-05-05T12:19:11.304Z,57.4097
2019-05-05T12:20:15.349Z,59.3811
2019-05-05T12:21:18.313Z,61.6394
2019-05-05T12:22:23.621Z,62.5366
2019-05-05T12:23:27.268Z,62.4329
2019-05-05T12:24:31.301Z,61.3770
2019-05-05T12:25:34.324Z,60.1196
2019-05-05T12:26:37.269Z,60.6812
2019-05-05T12:27:41.361Z,60.1379
2019-05-05T12:28:44.282Z,57.8857
2019-05-05T12:29:48.312Z,57.6599
2019-05-05T12:30:51.278Z,59.5703
2019-05-05T12:31:55.327Z,56.4026
2019-05-05T12:32:58.325Z,56.0974
2019-05-05T12:34:01.316Z,57.2205
2019-05-05T12:35:05.317Z,54.1565
2019-05-05T12:36:08.320Z,55.3589
2019-05-05T12:37:14.155Z,54.0283
2019-05-05T12:38:17.302Z,54.2297
2019-05-05T12:39:21.331Z,58.2153
2019-05-05T12:40:24.687Z,58.1116
2019-05-05T12:41:28.313Z,58.3923
2019-05-05T12:42:32.285Z,55.8167
2019-05-05T12:43:35.304Z,50.6104
2019-05-05T12:44:39.289Z,50.0244
2019-05-05T12:45:43.931Z,48.1018
2019-05-05T12:46:47.322Z,48.4558
2019-05-05T12:47:50.319Z,50.6287
2019-05-05T12:48:54.268Z,53.5156
2019-05-05T12:49:58.315Z,53.0029
2019-05-05T12:51:01.290Z,55.9692
2019-05-05T12:52:05.270Z,57.5073